Main page
METAR-TAF:

METAR-TAF

Airports :

Stockholm Bromma Airport

Stockholm, Sweden

latitude: 59-21N, longitude: 017-57E, elevation: 14 m

Current weather observation

The report was made 17 minutes ago, at 05:20 UTC
Wind 4 kt from the North/Northeast, varying between Northwest and East/Northeast
Temperature 16°C
Humidity 68%
Pressure 1013 hPa
Visibility 10 km or more
no clouds below 1500 m and no cumulonimbus

METAR: ESSB 210520Z 02004KT 320V060 CAVOK 16/10 Q1013

Time: 07:37 (05:37 UTC)

Forecast

The report was made 1 hour and 7 minutes ago, at 04:30 UTC
Forecast valid from 21 at 05 UTC to 21 at 12 UTC
Wind 8 kt from the North/Northwest
Visibility 10 km or more
no clouds below 1500 m and no cumulonimbus

TAF: ESSB 210430Z 2105/2112 33008KT CAVOK

Weather observations and forecasts of more than 4000 airports (METAR and TAF reports).

The available stations are represented by yellow and red dots on the map.

Hover mouse over dot to see the name of the station.

Then click to see weather observations and forecasts.

To change the map : click on the green buttons with a black cross to zoom in, on the green button with a dash to zoom out, or on the green arrows for adjacent maps.


METAR-TAF: